YBBN/BNE METAR and TAF weather

Enter ICAO airport designator
Station Type Date Time Source
YBBN METAR 2019/08/20 09:30 UTC NOAA

YBBN 200930Z 33003KT CAVOK 12/07 Q1022


Station Type Date Time Source
YBBN Decoded METAR 2019/08/20 09:30 UTC NOAA

Brisbane Airport M. O, Australia (YBBN) 27-23S 153-06E 5M
Aug 20, 2019 - 05:30 AM EDT / 2019.08.20 0930 UTC
Wind: from the NNW (330 degrees) at 3 MPH (3 KT):0
Visibility: greater than 7 mile(s):0
Temperature: 53 F (12 C)
Dew Point: 44 F (7 C)
Relative Humidity: 71%
Pressure (altimeter): 30.18 in. Hg (1022 hPa)
ob: YBBN 200930Z 33003KT CAVOK 12/07 Q1022
cycle: 9

Station Type Date Time Source
YBBN TAF 2019/08/20 06:37 UTC NOAA

TAF YBBN 200505Z 2006/2112 03008KT CAVOK
FM201100 33006KT CAVOK
FM201500 24007KT CAVOK
FM202300 25013KT CAVOK

Example: see airport list